sensor_id;sensor_type;location;lat;lon;timestamp;P1;durP1;ratioP1;P2;durP2;ratioP2
7965;SDS011;4028;43.272;26.932;2023-02-13T00:01:01;10.33;;;6.33;;
7965;SDS011;4028;43.272;26.932;2023-02-13T00:03:27;7.37;;;5.90;;
7965;SDS011;4028;43.272;26.932;2023-02-13T00:05:53;8.40;;;5.97;;
7965;SDS011;4028;43.272;26.932;2023-02-13T00:08:18;9.13;;;6.30;;
7965;SDS011;4028;43.272;26.932;2023-02-13T00:10:44;7.63;;;5.47;;
7965;SDS011;4028;43.272;26.932;2023-02-13T00:13:10;7.57;;;5.53;;
7965;SDS011;4028;43.272;26.932;2023-02-13T00:15:36;7.73;;;5.53;;
7965;SDS011;4028;43.272;26.932;2023-02-13T00:18:02;8.53;;;5.73;;
7965;SDS011;4028;43.272;26.932;2023-02-13T00:20:27;7.40;;;5.53;;
7965;SDS011;4028;43.272;26.932;2023-02-13T00:22:53;7.30;;;5.30;;
7965;SDS011;4028;43.272;26.932;2023-02-13T00:25:18;10.37;;;5.67;;
7965;SDS011;4028;43.272;26.932;2023-02-13T00:27:44;6.00;;;4.63;;
7965;SDS011;4028;43.272;26.932;2023-02-13T00:30:09;8.57;;;5.47;;
7965;SDS011;4028;43.272;26.932;2023-02-13T00:32:35;7.20;;;4.77;;
7965;SDS011;4028;43.272;26.932;2023-02-13T00:35:01;6.93;;;4.67;;
7965;SDS011;4028;43.272;26.932;2023-02-13T00:37:26;6.60;;;4.67;;
7965;SDS011;4028;43.272;26.932;2023-02-13T00:39:52;5.97;;;4.17;;
7965;SDS011;4028;43.272;26.932;2023-02-13T00:42:17;5.23;;;4.00;;
7965;SDS011;4028;43.272;26.932;2023-02-13T00:44:44;5.60;;;4.13;;
7965;SDS011;4028;43.272;26.932;2023-02-13T00:47:09;7.13;;;4.87;;
7965;SDS011;4028;43.272;26.932;2023-02-13T00:49:38;5.80;;;4.17;;
7965;SDS011;4028;43.272;26.932;2023-02-13T00:52:04;7.07;;;4.97;;
7965;SDS011;4028;43.272;26.932;2023-02-13T00:54:29;6.43;;;4.60;;
7965;SDS011;4028;43.272;26.932;2023-02-13T00:56:55;6.10;;;4.37;;
7965;SDS011;4028;43.272;26.932;2023-02-13T00:59:20;6.07;;;4.57;;
7965;SDS011;4028;43.272;26.932;2023-02-13T01:01:46;8.77;;;5.37;;
7965;SDS011;4028;43.272;26.932;2023-02-13T01:04:11;5.87;;;4.70;;
7965;SDS011;4028;43.272;26.932;2023-02-13T01:06:36;5.50;;;4.30;;
7965;SDS011;4028;43.272;26.932;2023-02-13T01:09:02;7.97;;;5.20;;
7965;SDS011;4028;43.272;26.932;2023-02-13T01:11:29;8.60;;;5.27;;
7965;SDS011;4028;43.272;26.932;2023-02-13T01:13:55;8.80;;;5.10;;
7965;SDS011;4028;43.272;26.932;2023-02-13T01:16:21;8.47;;;5.73;;
7965;SDS011;4028;43.272;26.932;2023-02-13T01:18:46;9.10;;;5.97;;
7965;SDS011;4028;43.272;26.932;2023-02-13T01:21:16;8.43;;;6.00;;
7965;SDS011;4028;43.272;26.932;2023-02-13T01:23:44;9.40;;;5.83;;
7965;SDS011;4028;43.272;26.932;2023-02-13T01:26:12;8.77;;;6.13;;
7965;SDS011;4028;43.272;26.932;2023-02-13T01:28:43;7.90;;;6.07;;
7965;SDS011;4028;43.272;26.932;2023-02-13T01:31:08;8.93;;;6.27;;
7965;SDS011;4028;43.272;26.932;2023-02-13T01:33:34;8.27;;;5.80;;
7965;SDS011;4028;43.272;26.932;2023-02-13T01:36:04;9.27;;;5.77;;
7965;SDS011;4028;43.272;26.932;2023-02-13T01:38:33;9.33;;;5.60;;
7965;SDS011;4028;43.272;26.932;2023-02-13T01:40:58;4.73;;;4.10;;
7965;SDS011;4028;43.272;26.932;2023-02-13T01:43:40;5.70;;;4.70;;
7965;SDS011;4028;43.272;26.932;2023-02-13T01:46:36;5.63;;;4.07;;
7965;SDS011;4028;43.272;26.932;2023-02-13T01:49:13;8.43;;;4.77;;
7965;SDS011;4028;43.272;26.932;2023-02-13T01:51:42;5.07;;;4.10;;
7965;SDS011;4028;43.272;26.932;2023-02-13T01:54:11;4.40;;;3.60;;
7965;SDS011;4028;43.272;26.932;2023-02-13T01:56:45;5.97;;;4.40;;
7965;SDS011;4028;43.272;26.932;2023-02-13T01:59:19;7.33;;;4.53;;
7965;SDS011;4028;43.272;26.932;2023-02-13T02:01:49;6.97;;;4.07;;
7965;SDS011;4028;43.272;26.932;2023-02-13T02:04:19;5.83;;;4.00;;
7965;SDS011;4028;43.272;26.932;2023-02-13T02:07:29;5.47;;;3.60;;
7965;SDS011;4028;43.272;26.932;2023-02-13T02:09:42;6.20;;;4.03;;
7965;SDS011;4028;43.272;26.932;2023-02-13T02:12:16;6.10;;;4.67;;
7965;SDS011;4028;43.272;26.932;2023-02-13T02:15:04;4.83;;;3.70;;
7965;SDS011;4028;43.272;26.932;2023-02-13T02:17:31;6.07;;;3.93;;
7965;SDS011;4028;43.272;26.932;2023-02-13T02:40:36;8.67;;;5.00;;
7965;SDS011;4028;43.272;26.932;2023-02-13T02:43:11;7.53;;;5.27;;
7965;SDS011;4028;43.272;26.932;2023-02-13T02:48:39;7.77;;;5.37;;
7965;SDS011;4028;43.272;26.932;2023-02-13T02:51:38;9.13;;;6.00;;
7965;SDS011;4028;43.272;26.932;2023-02-13T02:57:36;14.70;;;7.30;;
7965;SDS011;4028;43.272;26.932;2023-02-13T03:00:25;27.00;;;14.23;;
7965;SDS011;4028;43.272;26.932;2023-02-13T03:03:14;22.40;;;12.93;;
7965;SDS011;4028;43.272;26.932;2023-02-13T03:08:53;10.73;;;8.40;;
7965;SDS011;4028;43.272;26.932;2023-02-13T03:11:42;12.60;;;9.47;;
7965;SDS011;4028;43.272;26.932;2023-02-13T03:14:31;12.40;;;9.03;;
7965;SDS011;4028;43.272;26.932;2023-02-13T03:16:57;12.53;;;8.40;;
7965;SDS011;4028;43.272;26.932;2023-02-13T03:19:43;11.93;;;8.00;;
7965;SDS011;4028;43.272;26.932;2023-02-13T03:22:59;14.93;;;9.50;;
7965;SDS011;4028;43.272;26.932;2023-02-13T03:28:49;11.03;;;8.40;;
7965;SDS011;4028;43.272;26.932;2023-02-13T03:34:34;14.07;;;8.70;;
7965;SDS011;4028;43.272;26.932;2023-02-13T03:37:26;14.00;;;8.90;;
7965;SDS011;4028;43.272;26.932;2023-02-13T03:40:27;12.70;;;7.97;;
7965;SDS011;4028;43.272;26.932;2023-02-13T03:45:37;11.13;;;7.90;;
7965;SDS011;4028;43.272;26.932;2023-02-13T03:48:34;10.50;;;6.57;;
7965;SDS011;4028;43.272;26.932;2023-02-13T03:51:43;9.47;;;5.03;;
7965;SDS011;4028;43.272;26.932;2023-02-13T03:54:47;7.57;;;5.57;;
7965;SDS011;4028;43.272;26.932;2023-02-13T03:57:42;7.07;;;5.20;;
7965;SDS011;4028;43.272;26.932;2023-02-13T04:00:28;9.20;;;6.00;;
7965;SDS011;4028;43.272;26.932;2023-02-13T04:03:03;9.30;;;6.43;;
7965;SDS011;4028;43.272;26.932;2023-02-13T04:05:31;9.07;;;5.37;;
7965;SDS011;4028;43.272;26.932;2023-02-13T04:08:05;8.83;;;5.83;;
7965;SDS011;4028;43.272;26.932;2023-02-13T04:10:31;11.33;;;6.17;;
7965;SDS011;4028;43.272;26.932;2023-02-13T04:15:46;15.37;;;8.53;;
7965;SDS011;4028;43.272;26.932;2023-02-13T04:18:19;14.80;;;9.10;;
7965;SDS011;4028;43.272;26.932;2023-02-13T04:20:47;12.30;;;7.83;;
7965;SDS011;4028;43.272;26.932;2023-02-13T04:23:13;14.83;;;8.70;;
7965;SDS011;4028;43.272;26.932;2023-02-13T04:25:40;13.27;;;9.20;;
7965;SDS011;4028;43.272;26.932;2023-02-13T04:28:07;12.73;;;9.23;;
7965;SDS011;4028;43.272;26.932;2023-02-13T04:30:33;13.90;;;9.17;;
7965;SDS011;4028;43.272;26.932;2023-02-13T04:32:58;11.03;;;8.57;;
7965;SDS011;4028;43.272;26.932;2023-02-13T04:35:24;14.37;;;9.17;;
7965;SDS011;4028;43.272;26.932;2023-02-13T04:37:49;11.83;;;8.03;;
7965;SDS011;4028;43.272;26.932;2023-02-13T04:40:15;9.30;;;6.80;;
7965;SDS011;4028;43.272;26.932;2023-02-13T04:42:40;7.97;;;6.30;;
7965;SDS011;4028;43.272;26.932;2023-02-13T04:45:06;7.07;;;5.87;;
7965;SDS011;4028;43.272;26.932;2023-02-13T04:47:32;8.10;;;5.80;;
7965;SDS011;4028;43.272;26.932;2023-02-13T04:49:57;10.00;;;6.60;;
7965;SDS011;4028;43.272;26.932;2023-02-13T04:52:22;8.70;;;5.67;;
7965;SDS011;4028;43.272;26.932;2023-02-13T04:54:48;8.07;;;5.53;;
7965;SDS011;4028;43.272;26.932;2023-02-13T04:57:14;10.40;;;5.40;;
7965;SDS011;4028;43.272;26.932;2023-02-13T04:59:39;6.90;;;4.90;;
7965;SDS011;4028;43.272;26.932;2023-02-13T05:02:05;7.43;;;5.40;;
7965;SDS011;4028;43.272;26.932;2023-02-13T05:04:30;5.63;;;5.03;;
7965;SDS011;4028;43.272;26.932;2023-02-13T05:06:56;11.07;;;5.77;;
7965;SDS011;4028;43.272;26.932;2023-02-13T05:09:21;8.73;;;6.80;;
7965;SDS011;4028;43.272;26.932;2023-02-13T05:11:49;11.60;;;7.13;;
7965;SDS011;4028;43.272;26.932;2023-02-13T05:14:16;10.83;;;7.30;;
7965;SDS011;4028;43.272;26.932;2023-02-13T05:16:42;10.40;;;6.90;;
7965;SDS011;4028;43.272;26.932;2023-02-13T05:19:07;11.47;;;6.97;;
7965;SDS011;4028;43.272;26.932;2023-02-13T05:21:33;9.93;;;6.50;;
7965;SDS011;4028;43.272;26.932;2023-02-13T05:24:17;9.17;;;6.23;;
7965;SDS011;4028;43.272;26.932;2023-02-13T05:26:42;9.17;;;6.03;;
7965;SDS011;4028;43.272;26.932;2023-02-13T05:29:09;12.40;;;6.30;;
7965;SDS011;4028;43.272;26.932;2023-02-13T05:31:44;9.00;;;5.97;;
7965;SDS011;4028;43.272;26.932;2023-02-13T05:34:12;12.23;;;6.53;;
7965;SDS011;4028;43.272;26.932;2023-02-13T05:36:38;10.00;;;7.00;;
7965;SDS011;4028;43.272;26.932;2023-02-13T05:39:04;10.77;;;6.57;;
7965;SDS011;4028;43.272;26.932;2023-02-13T05:41:30;9.10;;;6.60;;
7965;SDS011;4028;43.272;26.932;2023-02-13T05:43:55;9.93;;;7.17;;
7965;SDS011;4028;43.272;26.932;2023-02-13T05:46:21;10.30;;;6.60;;
7965;SDS011;4028;43.272;26.932;2023-02-13T05:48:46;10.57;;;6.90;;
7965;SDS011;4028;43.272;26.932;2023-02-13T05:51:11;9.33;;;7.27;;
7965;SDS011;4028;43.272;26.932;2023-02-13T05:53:37;12.60;;;7.37;;
7965;SDS011;4028;43.272;26.932;2023-02-13T05:56:03;10.73;;;6.80;;
7965;SDS011;4028;43.272;26.932;2023-02-13T05:58:30;13.30;;;7.37;;
7965;SDS011;4028;43.272;26.932;2023-02-13T06:00:56;9.90;;;6.57;;
7965;SDS011;4028;43.272;26.932;2023-02-13T06:03:25;12.10;;;6.50;;
7965;SDS011;4028;43.272;26.932;2023-02-13T06:05:52;13.03;;;8.10;;
7965;SDS011;4028;43.272;26.932;2023-02-13T06:08:19;12.87;;;6.63;;
7965;SDS011;4028;43.272;26.932;2023-02-13T06:10:45;10.67;;;6.83;;
7965;SDS011;4028;43.272;26.932;2023-02-13T06:13:11;14.17;;;7.50;;
7965;SDS011;4028;43.272;26.932;2023-02-13T06:15:37;9.97;;;6.67;;
7965;SDS011;4028;43.272;26.932;2023-02-13T06:18:02;12.37;;;9.33;;
7965;SDS011;4028;43.272;26.932;2023-02-13T06:20:27;12.23;;;8.70;;
7965;SDS011;4028;43.272;26.932;2023-02-13T06:22:53;9.47;;;7.30;;
7965;SDS011;4028;43.272;26.932;2023-02-13T06:25:19;11.07;;;7.67;;
7965;SDS011;4028;43.272;26.932;2023-02-13T06:27:44;12.80;;;7.83;;
7965;SDS011;4028;43.272;26.932;2023-02-13T06:30:10;13.73;;;8.00;;
7965;SDS011;4028;43.272;26.932;2023-02-13T06:32:36;14.47;;;7.60;;
7965;SDS011;4028;43.272;26.932;2023-02-13T06:35:02;9.73;;;7.33;;
7965;SDS011;4028;43.272;26.932;2023-02-13T06:37:27;10.63;;;6.37;;
7965;SDS011;4028;43.272;26.932;2023-02-13T06:39:53;11.50;;;7.20;;
7965;SDS011;4028;43.272;26.932;2023-02-13T06:42:18;10.87;;;8.37;;
7965;SDS011;4028;43.272;26.932;2023-02-13T06:44:44;16.83;;;9.83;;
7965;SDS011;4028;43.272;26.932;2023-02-13T06:47:09;14.80;;;9.70;;
7965;SDS011;4028;43.272;26.932;2023-02-13T06:49:35;15.40;;;11.97;;
7965;SDS011;4028;43.272;26.932;2023-02-13T06:52:00;21.37;;;14.73;;
7965;SDS011;4028;43.272;26.932;2023-02-13T06:54:26;19.77;;;12.33;;
7965;SDS011;4028;43.272;26.932;2023-02-13T06:56:51;19.77;;;12.43;;
7965;SDS011;4028;43.272;26.932;2023-02-13T06:59:17;21.70;;;12.93;;
7965;SDS011;4028;43.272;26.932;2023-02-13T07:01:42;22.40;;;12.20;;
7965;SDS011;4028;43.272;26.932;2023-02-13T07:04:07;17.10;;;12.20;;
7965;SDS011;4028;43.272;26.932;2023-02-13T07:06:33;17.13;;;12.33;;
7965;SDS011;4028;43.272;26.932;2023-02-13T07:08:59;18.53;;;11.23;;
7965;SDS011;4028;43.272;26.932;2023-02-13T07:11:26;14.57;;;9.70;;
7965;SDS011;4028;43.272;26.932;2023-02-13T07:13:51;11.63;;;8.80;;
7965;SDS011;4028;43.272;26.932;2023-02-13T07:16:17;8.43;;;5.50;;
7965;SDS011;4028;43.272;26.932;2023-02-13T07:18:42;15.43;;;10.43;;
7965;SDS011;4028;43.272;26.932;2023-02-13T07:21:08;18.67;;;12.53;;
7965;SDS011;4028;43.272;26.932;2023-02-13T07:23:33;19.37;;;13.10;;
7965;SDS011;4028;43.272;26.932;2023-02-13T07:25:59;18.07;;;12.13;;
7965;SDS011;4028;43.272;26.932;2023-02-13T07:28:25;19.90;;;13.60;;
7965;SDS011;4028;43.272;26.932;2023-02-13T07:30:52;18.27;;;13.90;;
7965;SDS011;4028;43.272;26.932;2023-02-13T07:33:17;19.43;;;14.67;;
7965;SDS011;4028;43.272;26.932;2023-02-13T07:35:47;15.70;;;11.40;;
7965;SDS011;4028;43.272;26.932;2023-02-13T07:38:13;13.70;;;10.07;;
7965;SDS011;4028;43.272;26.932;2023-02-13T07:40:39;12.27;;;9.23;;
7965;SDS011;4028;43.272;26.932;2023-02-13T07:43:04;15.30;;;10.70;;
7965;SDS011;4028;43.272;26.932;2023-02-13T07:45:30;15.93;;;10.43;;
7965;SDS011;4028;43.272;26.932;2023-02-13T07:47:56;13.13;;;10.43;;
7965;SDS011;4028;43.272;26.932;2023-02-13T07:50:22;11.37;;;8.33;;
7965;SDS011;4028;43.272;26.932;2023-02-13T07:52:54;11.33;;;8.17;;
7965;SDS011;4028;43.272;26.932;2023-02-13T07:55:21;10.50;;;8.33;;
7965;SDS011;4028;43.272;26.932;2023-02-13T07:57:47;13.67;;;10.97;;
7965;SDS011;4028;43.272;26.932;2023-02-13T08:00:13;15.37;;;11.43;;
7965;SDS011;4028;43.272;26.932;2023-02-13T08:02:39;15.17;;;12.17;;
7965;SDS011;4028;43.272;26.932;2023-02-13T08:05:05;19.57;;;13.13;;
7965;SDS011;4028;43.272;26.932;2023-02-13T08:07:31;15.27;;;11.33;;
7965;SDS011;4028;43.272;26.932;2023-02-13T08:09:56;15.47;;;12.70;;
7965;SDS011;4028;43.272;26.932;2023-02-13T08:12:40;17.27;;;12.23;;
7965;SDS011;4028;43.272;26.932;2023-02-13T08:15:08;15.07;;;11.80;;
7965;SDS011;4028;43.272;26.932;2023-02-13T08:17:35;16.73;;;13.00;;
7965;SDS011;4028;43.272;26.932;2023-02-13T08:20:01;13.50;;;12.00;;
7965;SDS011;4028;43.272;26.932;2023-02-13T08:22:26;16.97;;;10.90;;
7965;SDS011;4028;43.272;26.932;2023-02-13T08:24:52;14.77;;;11.27;;
7965;SDS011;4028;43.272;26.932;2023-02-13T08:27:17;12.33;;;10.43;;
7965;SDS011;4028;43.272;26.932;2023-02-13T08:29:43;17.17;;;11.03;;
7965;SDS011;4028;43.272;26.932;2023-02-13T08:32:08;14.97;;;11.80;;
7965;SDS011;4028;43.272;26.932;2023-02-13T08:34:34;14.23;;;10.20;;
7965;SDS011;4028;43.272;26.932;2023-02-13T08:37:00;10.90;;;9.20;;
7965;SDS011;4028;43.272;26.932;2023-02-13T08:39:26;14.07;;;9.27;;
7965;SDS011;4028;43.272;26.932;2023-02-13T08:41:51;10.67;;;8.30;;
7965;SDS011;4028;43.272;26.932;2023-02-13T08:44:17;13.57;;;8.37;;
7965;SDS011;4028;43.272;26.932;2023-02-13T08:46:42;7.83;;;7.03;;
7965;SDS011;4028;43.272;26.932;2023-02-13T08:49:08;10.37;;;7.23;;
7965;SDS011;4028;43.272;26.932;2023-02-13T08:51:33;6.17;;;4.90;;
7965;SDS011;4028;43.272;26.932;2023-02-13T08:53:59;5.87;;;4.83;;
7965;SDS011;4028;43.272;26.932;2023-02-13T08:56:24;5.63;;;4.80;;
7965;SDS011;4028;43.272;26.932;2023-02-13T08:58:50;6.07;;;5.07;;
7965;SDS011;4028;43.272;26.932;2023-02-13T09:01:15;6.33;;;4.60;;
7965;SDS011;4028;43.272;26.932;2023-02-13T09:03:41;7.00;;;5.20;;
7965;SDS011;4028;43.272;26.932;2023-02-13T09:06:06;9.23;;;5.43;;
7965;SDS011;4028;43.272;26.932;2023-02-13T09:08:33;6.70;;;4.40;;
7965;SDS011;4028;43.272;26.932;2023-02-13T09:11:00;6.37;;;5.07;;
7965;SDS011;4028;43.272;26.932;2023-02-13T09:13:28;11.80;;;4.70;;
7965;SDS011;4028;43.272;26.932;2023-02-13T09:16:00;8.10;;;4.93;;
7965;SDS011;4028;43.272;26.932;2023-02-13T09:18:27;6.20;;;4.80;;
7965;SDS011;4028;43.272;26.932;2023-02-13T09:20:59;8.87;;;4.87;;
7965;SDS011;4028;43.272;26.932;2023-02-13T09:23:31;6.77;;;4.97;;
7965;SDS011;4028;43.272;26.932;2023-02-13T09:25:58;10.37;;;5.90;;
7965;SDS011;4028;43.272;26.932;2023-02-13T09:28:25;6.47;;;5.23;;
7965;SDS011;4028;43.272;26.932;2023-02-13T09:30:50;8.10;;;5.50;;
7965;SDS011;4028;43.272;26.932;2023-02-13T09:33:16;8.03;;;6.33;;
7965;SDS011;4028;43.272;26.932;2023-02-13T09:35:41;9.10;;;5.37;;
7965;SDS011;4028;43.272;26.932;2023-02-13T09:38:07;10.07;;;6.17;;
7965;SDS011;4028;43.272;26.932;2023-02-13T09:43:14;9.73;;;5.70;;
7965;SDS011;4028;43.272;26.932;2023-02-13T09:45:45;10.10;;;6.50;;
7965;SDS011;4028;43.272;26.932;2023-02-13T09:48:17;12.27;;;5.80;;
7965;SDS011;4028;43.272;26.932;2023-02-13T09:50:50;9.97;;;5.40;;
7965;SDS011;4028;43.272;26.932;2023-02-13T09:53:17;8.60;;;6.27;;
7965;SDS011;4028;43.272;26.932;2023-02-13T09:58:47;11.03;;;6.67;;
7965;SDS011;4028;43.272;26.932;2023-02-13T10:01:21;8.30;;;7.13;;
7965;SDS011;4028;43.272;26.932;2023-02-13T10:04:07;9.00;;;7.47;;
7965;SDS011;4028;43.272;26.932;2023-02-13T10:09:39;10.73;;;8.73;;
7965;SDS011;4028;43.272;26.932;2023-02-13T10:15:47;10.43;;;8.57;;
7965;SDS011;4028;43.272;26.932;2023-02-13T10:18:28;12.43;;;8.47;;
7965;SDS011;4028;43.272;26.932;2023-02-13T10:21:06;11.30;;;8.40;;
7965;SDS011;4028;43.272;26.932;2023-02-13T10:23:38;10.20;;;9.07;;
7965;SDS011;4028;43.272;26.932;2023-02-13T10:26:30;8.97;;;8.10;;
7965;SDS011;4028;43.272;26.932;2023-02-13T10:32:01;9.23;;;7.50;;
7965;SDS011;4028;43.272;26.932;2023-02-13T10:34:34;11.53;;;7.93;;
7965;SDS011;4028;43.272;26.932;2023-02-13T10:37:07;10.07;;;8.50;;
7965;SDS011;4028;43.272;26.932;2023-02-13T10:39:39;11.27;;;10.17;;
7965;SDS011;4028;43.272;26.932;2023-02-13T10:47:24;9.70;;;7.60;;
7965;SDS011;4028;43.272;26.932;2023-02-13T10:52:43;10.63;;;9.17;;
7965;SDS011;4028;43.272;26.932;2023-02-13T11:01:13;8.43;;;7.40;;
7965;SDS011;4028;43.272;26.932;2023-02-13T11:03:40;10.73;;;8.00;;
7965;SDS011;4028;43.272;26.932;2023-02-13T11:06:06;11.50;;;8.73;;
7965;SDS011;4028;43.272;26.932;2023-02-13T11:08:40;10.07;;;8.40;;
7965;SDS011;4028;43.272;26.932;2023-02-13T11:16:46;8.87;;;7.40;;
7965;SDS011;4028;43.272;26.932;2023-02-13T11:19:27;9.23;;;8.10;;
7965;SDS011;4028;43.272;26.932;2023-02-13T11:22:27;9.53;;;8.40;;
7965;SDS011;4028;43.272;26.932;2023-02-13T11:24:57;13.00;;;10.90;;
7965;SDS011;4028;43.272;26.932;2023-02-13T11:27:27;10.60;;;9.40;;
7965;SDS011;4028;43.272;26.932;2023-02-13T11:30:38;12.73;;;10.23;;
7965;SDS011;4028;43.272;26.932;2023-02-13T11:33:04;11.30;;;10.17;;
7965;SDS011;4028;43.272;26.932;2023-02-13T11:35:45;10.43;;;8.20;;
7965;SDS011;4028;43.272;26.932;2023-02-13T11:40:43;9.67;;;8.57;;
7965;SDS011;4028;43.272;26.932;2023-02-13T11:43:18;12.17;;;9.03;;
7965;SDS011;4028;43.272;26.932;2023-02-13T11:46:01;11.70;;;9.57;;
7965;SDS011;4028;43.272;26.932;2023-02-13T11:48:36;13.13;;;9.13;;
7965;SDS011;4028;43.272;26.932;2023-02-13T11:51:02;18.30;;;9.07;;
7965;SDS011;4028;43.272;26.932;2023-02-13T11:53:34;12.97;;;9.43;;
7965;SDS011;4028;43.272;26.932;2023-02-13T11:58:37;11.57;;;8.80;;
7965;SDS011;4028;43.272;26.932;2023-02-13T12:03:43;10.47;;;8.70;;
7965;SDS011;4028;43.272;26.932;2023-02-13T12:06:56;16.13;;;7.90;;
7965;SDS011;4028;43.272;26.932;2023-02-13T12:09:24;16.17;;;9.73;;
7965;SDS011;4028;43.272;26.932;2023-02-13T12:11:52;15.87;;;10.80;;
7965;SDS011;4028;43.272;26.932;2023-02-13T12:14:37;11.97;;;9.10;;
7965;SDS011;4028;43.272;26.932;2023-02-13T12:17:07;16.43;;;11.97;;
7965;SDS011;4028;43.272;26.932;2023-02-13T12:19:42;10.10;;;8.87;;
7965;SDS011;4028;43.272;26.932;2023-02-13T12:22:19;16.30;;;8.73;;
7965;SDS011;4028;43.272;26.932;2023-02-13T12:25:31;11.20;;;8.47;;
7965;SDS011;4028;43.272;26.932;2023-02-13T12:28:15;12.50;;;9.27;;
7965;SDS011;4028;43.272;26.932;2023-02-13T12:53:05;13.03;;;9.93;;
7965;SDS011;4028;43.272;26.932;2023-02-13T13:14:52;12.93;;;10.77;;
7965;SDS011;4028;43.272;26.932;2023-02-13T13:17:45;13.97;;;10.63;;
7965;SDS011;4028;43.272;26.932;2023-02-13T13:22:55;19.43;;;12.60;;
7965;SDS011;4028;43.272;26.932;2023-02-13T13:28:03;11.27;;;9.73;;
7965;SDS011;4028;43.272;26.932;2023-02-13T13:30:37;12.63;;;10.47;;
7965;SDS011;4028;43.272;26.932;2023-02-13T13:33:13;12.80;;;11.07;;
7965;SDS011;4028;43.272;26.932;2023-02-13T13:35:46;12.90;;;11.07;;
7965;SDS011;4028;43.272;26.932;2023-02-13T13:43:57;13.53;;;11.00;;
7965;SDS011;4028;43.272;26.932;2023-02-13T13:46:55;17.60;;;13.20;;
7965;SDS011;4028;43.272;26.932;2023-02-13T13:51:50;15.77;;;12.70;;
7965;SDS011;4028;43.272;26.932;2023-02-13T13:54:17;16.57;;;13.17;;
7965;SDS011;4028;43.272;26.932;2023-02-13T14:07:37;16.07;;;13.17;;
7965;SDS011;4028;43.272;26.932;2023-02-13T14:10:07;19.77;;;15.10;;
7965;SDS011;4028;43.272;26.932;2023-02-13T14:12:45;19.63;;;13.40;;
7965;SDS011;4028;43.272;26.932;2023-02-13T14:18:19;17.73;;;12.33;;
7965;SDS011;4028;43.272;26.932;2023-02-13T14:26:11;17.40;;;13.17;;
7965;SDS011;4028;43.272;26.932;2023-02-13T14:34:01;15.33;;;12.10;;
7965;SDS011;4028;43.272;26.932;2023-02-13T14:36:35;17.27;;;14.27;;
7965;SDS011;4028;43.272;26.932;2023-02-13T14:44:19;20.97;;;14.57;;
7965;SDS011;4028;43.272;26.932;2023-02-13T14:46:48;22.67;;;15.10;;
7965;SDS011;4028;43.272;26.932;2023-02-13T14:49:20;22.90;;;16.37;;
7965;SDS011;4028;43.272;26.932;2023-02-13T14:52:00;25.70;;;16.33;;
7965;SDS011;4028;43.272;26.932;2023-02-13T14:54:38;23.17;;;16.07;;
7965;SDS011;4028;43.272;26.932;2023-02-13T14:57:17;24.10;;;19.43;;
7965;SDS011;4028;43.272;26.932;2023-02-13T14:59:47;26.33;;;21.83;;
7965;SDS011;4028;43.272;26.932;2023-02-13T15:02:18;23.03;;;17.67;;
7965;SDS011;4028;43.272;26.932;2023-02-13T15:04:48;22.47;;;17.00;;
7965;SDS011;4028;43.272;26.932;2023-02-13T15:07:20;23.80;;;18.33;;
7965;SDS011;4028;43.272;26.932;2023-02-13T15:09:52;22.00;;;17.27;;
7965;SDS011;4028;43.272;26.932;2023-02-13T15:12:37;26.87;;;20.07;;
7965;SDS011;4028;43.272;26.932;2023-02-13T15:15:20;26.53;;;19.23;;
7965;SDS011;4028;43.272;26.932;2023-02-13T15:17:48;28.10;;;20.53;;
7965;SDS011;4028;43.272;26.932;2023-02-13T15:22:51;24.17;;;18.30;;
7965;SDS011;4028;43.272;26.932;2023-02-13T15:25:24;24.77;;;19.37;;
7965;SDS011;4028;43.272;26.932;2023-02-13T15:27:53;29.83;;;19.43;;
7965;SDS011;4028;43.272;26.932;2023-02-13T15:30:23;26.97;;;20.17;;
7965;SDS011;4028;43.272;26.932;2023-02-13T15:32:58;29.37;;;20.47;;
7965;SDS011;4028;43.272;26.932;2023-02-13T15:35:30;29.83;;;22.83;;
7965;SDS011;4028;43.272;26.932;2023-02-13T15:37:57;27.47;;;21.07;;
7965;SDS011;4028;43.272;26.932;2023-02-13T15:40:27;28.50;;;20.47;;
7965;SDS011;4028;43.272;26.932;2023-02-13T15:42:55;26.23;;;20.13;;
7965;SDS011;4028;43.272;26.932;2023-02-13T15:45:22;26.73;;;20.40;;
7965;SDS011;4028;43.272;26.932;2023-02-13T15:47:50;29.00;;;21.97;;
7965;SDS011;4028;43.272;26.932;2023-02-13T15:50:17;34.90;;;25.20;;
7965;SDS011;4028;43.272;26.932;2023-02-13T15:52:48;31.47;;;24.80;;
7965;SDS011;4028;43.272;26.932;2023-02-13T15:55:19;29.67;;;21.73;;
7965;SDS011;4028;43.272;26.932;2023-02-13T15:57:49;32.40;;;21.33;;
7965;SDS011;4028;43.272;26.932;2023-02-13T16:00:40;31.97;;;22.00;;
7965;SDS011;4028;43.272;26.932;2023-02-13T16:03:06;29.83;;;22.67;;
7965;SDS011;4028;43.272;26.932;2023-02-13T16:05:38;31.93;;;22.83;;
7965;SDS011;4028;43.272;26.932;2023-02-13T16:14:00;33.27;;;24.90;;
7965;SDS011;4028;43.272;26.932;2023-02-13T16:16:26;32.03;;;25.23;;
7965;SDS011;4028;43.272;26.932;2023-02-13T16:18:54;34.50;;;25.60;;
7965;SDS011;4028;43.272;26.932;2023-02-13T16:21:23;37.00;;;25.97;;
7965;SDS011;4028;43.272;26.932;2023-02-13T16:23:57;36.77;;;27.80;;
7965;SDS011;4028;43.272;26.932;2023-02-13T16:26:27;44.67;;;34.87;;
7965;SDS011;4028;43.272;26.932;2023-02-13T16:28:53;49.87;;;34.53;;
7965;SDS011;4028;43.272;26.932;2023-02-13T16:31:19;47.00;;;32.37;;
7965;SDS011;4028;43.272;26.932;2023-02-13T16:33:46;47.23;;;35.30;;
7965;SDS011;4028;43.272;26.932;2023-02-13T16:38:55;57.10;;;41.90;;
7965;SDS011;4028;43.272;26.932;2023-02-13T16:46:17;50.43;;;38.03;;
7965;SDS011;4028;43.272;26.932;2023-02-13T16:53:54;47.60;;;37.57;;
7965;SDS011;4028;43.272;26.932;2023-02-13T16:56:21;52.47;;;38.80;;
7965;SDS011;4028;43.272;26.932;2023-02-13T16:58:46;57.77;;;44.63;;
7965;SDS011;4028;43.272;26.932;2023-02-13T17:01:12;53.10;;;41.07;;
7965;SDS011;4028;43.272;26.932;2023-02-13T17:03:42;50.37;;;37.57;;
7965;SDS011;4028;43.272;26.932;2023-02-13T17:06:07;53.17;;;38.37;;
7965;SDS011;4028;43.272;26.932;2023-02-13T17:08:34;48.57;;;36.03;;
7965;SDS011;4028;43.272;26.932;2023-02-13T17:11:04;48.10;;;37.77;;
7965;SDS011;4028;43.272;26.932;2023-02-13T17:13:31;55.00;;;40.03;;
7965;SDS011;4028;43.272;26.932;2023-02-13T17:15:57;65.67;;;53.13;;
7965;SDS011;4028;43.272;26.932;2023-02-13T17:18:24;64.37;;;51.63;;
7965;SDS011;4028;43.272;26.932;2023-02-13T17:20:50;61.00;;;46.97;;
7965;SDS011;4028;43.272;26.932;2023-02-13T17:23:17;59.97;;;45.73;;
7965;SDS011;4028;43.272;26.932;2023-02-13T17:25:46;57.10;;;40.30;;
7965;SDS011;4028;43.272;26.932;2023-02-13T17:28:18;55.67;;;39.33;;
7965;SDS011;4028;43.272;26.932;2023-02-13T17:30:48;56.00;;;41.43;;
7965;SDS011;4028;43.272;26.932;2023-02-13T17:33:37;65.80;;;53.10;;
7965;SDS011;4028;43.272;26.932;2023-02-13T17:36:04;57.70;;;47.13;;
7965;SDS011;4028;43.272;26.932;2023-02-13T17:38:30;55.03;;;40.77;;
7965;SDS011;4028;43.272;26.932;2023-02-13T17:40:55;50.30;;;38.93;;
7965;SDS011;4028;43.272;26.932;2023-02-13T17:43:21;50.00;;;37.23;;
7965;SDS011;4028;43.272;26.932;2023-02-13T17:45:47;53.73;;;41.33;;
7965;SDS011;4028;43.272;26.932;2023-02-13T17:48:13;56.60;;;40.23;;
7965;SDS011;4028;43.272;26.932;2023-02-13T17:50:39;56.17;;;43.70;;
7965;SDS011;4028;43.272;26.932;2023-02-13T17:53:06;61.07;;;45.67;;
7965;SDS011;4028;43.272;26.932;2023-02-13T17:55:40;56.97;;;42.20;;
7965;SDS011;4028;43.272;26.932;2023-02-13T17:58:05;57.17;;;41.83;;
7965;SDS011;4028;43.272;26.932;2023-02-13T18:00:31;55.07;;;40.80;;
7965;SDS011;4028;43.272;26.932;2023-02-13T18:02:58;59.97;;;42.77;;
7965;SDS011;4028;43.272;26.932;2023-02-13T18:05:24;60.07;;;45.37;;
7965;SDS011;4028;43.272;26.932;2023-02-13T18:07:51;65.73;;;46.87;;
7965;SDS011;4028;43.272;26.932;2023-02-13T18:10:18;58.07;;;42.30;;
7965;SDS011;4028;43.272;26.932;2023-02-13T18:12:48;53.53;;;39.90;;
7965;SDS011;4028;43.272;26.932;2023-02-13T18:15:15;56.77;;;39.73;;
7965;SDS011;4028;43.272;26.932;2023-02-13T18:17:41;50.33;;;37.70;;